createdAt,value
2017-12-23T00:52:57.042Z,17.31
2017-12-23T00:53:56.792Z,17.31
2017-12-23T00:54:56.897Z,17.25
2017-12-23T00:55:56.810Z,17.25
2017-12-23T00:56:57.042Z,17.25
2017-12-23T00:57:56.625Z,17.25
2017-12-23T00:58:56.802Z,17.25
2017-12-23T00:59:57.117Z,17.19
2017-12-23T01:00:56.988Z,17.25
2017-12-23T01:01:56.772Z,17.19
2017-12-23T01:02:56.439Z,17.19
2017-12-23T01:03:56.589Z,17.25
2017-12-23T01:04:56.446Z,17.19
2017-12-23T01:05:56.864Z,17.19
2017-12-23T01:06:57.243Z,17.19
2017-12-23T01:07:56.834Z,17.19
2017-12-23T01:08:56.903Z,17.25
2017-12-23T01:09:56.652Z,17.25
2017-12-23T01:10:56.953Z,17.19
2017-12-23T01:11:56.887Z,17.19
2017-12-23T01:12:57.181Z,17.19
2017-12-23T01:13:57.220Z,17.19
2017-12-23T01:14:56.614Z,17.12
2017-12-23T01:15:56.966Z,17.19
2017-12-23T01:16:57.069Z,17.19
2017-12-23T01:17:56.942Z,17.19
2017-12-23T01:18:57.037Z,17.19
2017-12-23T01:19:57.817Z,17.19
2017-12-23T01:20:57.297Z,17.19
2017-12-23T01:21:56.882Z,17.19
2017-12-23T01:22:56.874Z,17.19
2017-12-23T01:23:57.029Z,17.19
2017-12-23T01:24:56.808Z,17.19
2017-12-23T01:25:57.319Z,17.12
2017-12-23T01:26:56.457Z,17.12
2017-12-23T01:27:56.826Z,17.19
2017-12-23T01:28:56.869Z,17.19
2017-12-23T01:29:56.628Z,17.19
2017-12-23T01:30:56.871Z,17.12
2017-12-23T01:31:56.623Z,17.12
2017-12-23T01:32:56.680Z,17.12
2017-12-23T01:33:56.431Z,17.12
2017-12-23T01:34:56.599Z,17.19
2017-12-23T01:35:56.681Z,17.12
2017-12-23T01:36:57.066Z,17.12
2017-12-23T01:37:56.662Z,17.12
2017-12-23T01:38:57.382Z,17.12
2017-12-23T01:39:57.011Z,17.12
2017-12-23T01:40:56.643Z,17.12
2017-12-23T01:41:56.633Z,17.06
2017-12-23T01:42:56.445Z,17.12
2017-12-23T01:43:56.465Z,17.06
2017-12-23T01:44:56.854Z,17.12
2017-12-23T01:45:56.680Z,17.12
2017-12-23T01:46:56.660Z,17.12
2017-12-23T01:47:56.245Z,17.12
2017-12-23T01:48:56.442Z,17.12
2017-12-23T01:49:56.875Z,17.12
2017-12-23T01:50:56.621Z,17.19
2017-12-23T01:51:57.014Z,17.12
2017-12-23T01:52:56.830Z,17.12
2017-12-23T01:53:56.801Z,17.06
2017-12-23T01:54:57.195Z,17.06
2017-12-23T01:55:57.237Z,17.06
2017-12-23T01:56:56.851Z,17.06
2017-12-23T01:57:56.654Z,17.06
2017-12-23T01:58:57.318Z,17.06
2017-12-23T01:59:56.646Z,17.06
2017-12-23T02:00:56.850Z,17.12
2017-12-23T02:01:56.440Z,17.06
2017-12-23T02:02:57.069Z,17
2017-12-23T02:03:56.722Z,17
2017-12-23T02:04:56.784Z,17.06
2017-12-23T02:05:56.805Z,17.06
2017-12-23T02:06:57.087Z,17.06
2017-12-23T02:07:56.987Z,17.06
2017-12-23T02:08:56.939Z,17.06
2017-12-23T02:09:57.425Z,17
2017-12-23T02:10:56.859Z,17.06
2017-12-23T02:11:56.777Z,17
2017-12-23T02:12:56.433Z,17.06
2017-12-23T02:13:56.901Z,17.06
2017-12-23T02:14:56.685Z,17.12
2017-12-23T02:15:57.225Z,17.06
2017-12-23T02:16:56.882Z,17.06
2017-12-23T02:17:56.688Z,17.06
2017-12-23T02:18:56.476Z,17
2017-12-23T02:19:56.665Z,17.06
2017-12-23T02:20:56.688Z,17.06
2017-12-23T02:21:56.848Z,17
2017-12-23T02:22:56.502Z,17.06
2017-12-23T02:23:56.498Z,17.06
2017-12-23T02:24:57.343Z,17
2017-12-23T02:25:56.696Z,17
2017-12-23T02:26:57.073Z,17
2017-12-23T02:27:56.802Z,17
2017-12-23T02:28:56.907Z,16.94
2017-12-23T02:29:56.653Z,17
2017-12-23T02:30:56.709Z,17
2017-12-23T02:31:57.298Z,17
2017-12-23T02:32:56.787Z,17
2017-12-23T02:33:57.360Z,17
2017-12-23T02:34:57.303Z,17
2017-12-23T02:35:56.935Z,17
2017-12-23T02:36:57.356Z,17
2017-12-23T02:37:57.328Z,17
2017-12-23T02:38:57.626Z,17
2017-12-23T02:39:56.997Z,17
2017-12-23T02:40:57.285Z,17
2017-12-23T02:41:56.725Z,16.94
2017-12-23T02:42:56.886Z,17
2017-12-23T02:43:57.381Z,16.94
2017-12-23T02:44:56.921Z,17
2017-12-23T02:45:57.227Z,17
2017-12-23T02:46:57.319Z,17
2017-12-23T02:47:57.241Z,17
2017-12-23T02:48:57.336Z,16.94
2017-12-23T02:49:57.517Z,17
2017-12-23T02:50:56.930Z,16.94
2017-12-23T02:51:57.238Z,17
2017-12-23T02:52:57.230Z,16.94
2017-12-23T02:53:56.940Z,16.94
2017-12-23T02:54:57.175Z,17
2017-12-23T02:55:57.171Z,16.94
2017-12-23T02:56:57.292Z,16.94
2017-12-23T02:57:57.257Z,16.94
2017-12-23T02:58:57.048Z,16.94
2017-12-23T02:59:56.475Z,16.94
2017-12-23T03:00:57.110Z,17
2017-12-23T03:01:56.522Z,16.94
2017-12-23T03:02:56.840Z,16.94
2017-12-23T03:03:56.636Z,16.94
2017-12-23T03:04:56.493Z,16.94
2017-12-23T03:05:56.621Z,16.94
2017-12-23T03:06:56.684Z,16.94
2017-12-23T03:07:56.861Z,16.94
2017-12-23T03:08:56.876Z,16.94
2017-12-23T03:09:56.930Z,16.94
2017-12-23T03:10:56.904Z,16.94
2017-12-23T03:11:56.474Z,16.94
2017-12-23T03:12:56.929Z,16.94
2017-12-23T03:13:56.885Z,16.94
2017-12-23T03:14:56.973Z,16.94
2017-12-23T03:15:56.842Z,16.87
2017-12-23T03:16:56.904Z,16.94
2017-12-23T03:17:56.656Z,16.94
2017-12-23T03:18:57.124Z,16.94
2017-12-23T03:19:56.514Z,16.94
2017-12-23T03:20:56.695Z,16.87
2017-12-23T03:21:57.038Z,16.94
2017-12-23T03:22:57.292Z,16.94
2017-12-23T03:23:57.078Z,16.87
2017-12-23T03:24:56.966Z,16.87
2017-12-23T03:25:56.871Z,16.94
2017-12-23T03:26:57.017Z,16.94
2017-12-23T03:27:56.918Z,16.87
2017-12-23T03:28:57.006Z,16.94
2017-12-23T03:29:57.350Z,16.94
2017-12-23T03:30:57.091Z,16.87
2017-12-23T03:31:57.327Z,16.94
2017-12-23T03:32:57.013Z,16.87
2017-12-23T03:33:56.953Z,16.87
2017-12-23T03:34:56.926Z,16.94
2017-12-23T03:35:57.002Z,16.87
2017-12-23T03:36:56.486Z,16.87
2017-12-23T03:37:56.666Z,16.94
2017-12-23T03:38:56.499Z,16.87
2017-12-23T03:39:56.951Z,16.87
2017-12-23T03:40:56.623Z,16.94
2017-12-23T03:41:57.096Z,16.87
2017-12-23T03:42:57.021Z,16.94
2017-12-23T03:43:57.099Z,16.87
2017-12-23T03:44:56.962Z,16.87
2017-12-23T03:45:56.853Z,16.87
2017-12-23T03:46:56.729Z,16.87
2017-12-23T03:47:56.706Z,16.81
2017-12-23T03:48:57.042Z,16.87
2017-12-23T03:49:57.400Z,16.87
2017-12-23T03:50:56.704Z,16.81
2017-12-23T03:51:57.139Z,16.87
2017-12-23T03:52:57.295Z,16.81
2017-12-23T03:53:56.709Z,16.87
2017-12-23T03:54:56.917Z,16.81
2017-12-23T03:55:56.534Z,16.81
2017-12-23T03:56:56.664Z,16.87
2017-12-23T03:57:57.304Z,16.81
2017-12-23T03:58:56.653Z,16.81
2017-12-23T03:59:56.912Z,16.81
2017-12-23T04:00:57.286Z,16.81
2017-12-23T04:01:57.082Z,16.87
2017-12-23T04:02:56.502Z,16.81
2017-12-23T04:03:56.312Z,16.81
2017-12-23T04:04:56.868Z,16.81
2017-12-23T04:05:57.165Z,16.81
2017-12-23T04:06:57.072Z,16.81
2017-12-23T04:07:56.917Z,16.81
2017-12-23T04:08:56.727Z,16.81
2017-12-23T04:09:57.084Z,16.81
2017-12-23T04:10:56.751Z,16.81
2017-12-23T04:11:56.669Z,16.75
2017-12-23T04:12:56.733Z,16.81
2017-12-23T04:13:56.490Z,16.81
2017-12-23T04:14:56.496Z,16.81
2017-12-23T04:15:56.303Z,16.81
2017-12-23T04:16:56.660Z,16.75
2017-12-23T04:17:56.746Z,16.81
2017-12-23T04:18:56.737Z,16.75
2017-12-23T04:19:56.939Z,16.81
2017-12-23T04:20:57.240Z,16.81
2017-12-23T04:21:56.747Z,16.75
2017-12-23T04:22:56.735Z,16.75
2017-12-23T04:23:57.069Z,16.75
2017-12-23T04:24:56.651Z,16.81
2017-12-23T04:25:56.967Z,16.81
2017-12-23T04:26:56.921Z,16.81
2017-12-23T04:27:56.667Z,16.81
2017-12-23T04:28:57.037Z,16.75
2017-12-23T04:29:56.458Z,16.81
2017-12-23T04:30:56.472Z,16.81
2017-12-23T04:31:56.730Z,16.69
2017-12-23T04:32:56.770Z,16.75
2017-12-23T04:33:56.875Z,16.81
2017-12-23T04:34:56.901Z,16.81
2017-12-23T04:35:56.887Z,16.75
2017-12-23T04:36:56.927Z,16.75
2017-12-23T04:37:56.910Z,16.75
2017-12-23T04:38:57.131Z,16.69
2017-12-23T04:39:56.834Z,16.69
2017-12-23T04:40:56.512Z,16.69
2017-12-23T04:41:57.144Z,16.75
2017-12-23T04:42:56.531Z,16.75
2017-12-23T04:43:56.525Z,16.75
2017-12-23T04:44:57.381Z,16.75
2017-12-23T04:45:57.121Z,16.75
2017-12-23T04:46:56.759Z,16.75
2017-12-23T04:47:56.877Z,16.75
2017-12-23T04:48:56.687Z,16.75
2017-12-23T04:49:57.074Z,16.75
2017-12-23T04:50:56.901Z,16.69
2017-12-23T04:51:57.160Z,16.75
2017-12-23T04:52:56.528Z,16.75
2017-12-23T04:53:56.743Z,16.75
2017-12-23T04:54:56.730Z,16.75
2017-12-23T04:55:56.840Z,16.75
2017-12-23T04:56:56.905Z,16.75
2017-12-23T04:57:56.921Z,16.69
2017-12-23T04:58:57.291Z,16.75
2017-12-23T04:59:56.960Z,16.75
2017-12-23T05:00:56.940Z,16.75
2017-12-23T05:01:56.710Z,16.75
2017-12-23T05:02:57.719Z,16.75
2017-12-23T05:03:57.130Z,16.81
2017-12-23T05:05:27.863Z,16.75
2017-12-23T05:05:56.483Z,16.75
2017-12-23T05:06:57.087Z,16.81
2017-12-23T05:07:56.813Z,16.75
2017-12-23T05:08:56.749Z,16.81
2017-12-23T05:09:56.897Z,16.81
2017-12-23T05:10:57.099Z,16.75
2017-12-23T05:11:56.885Z,16.81
2017-12-23T05:12:57.314Z,16.87
2017-12-23T05:13:56.494Z,16.81
2017-12-23T05:14:57.912Z,16.94
2017-12-23T05:15:56.573Z,16.94
2017-12-23T05:17:29.613Z,16.94
2017-12-23T05:17:56.979Z,16.94
2017-12-23T05:18:56.947Z,16.94
2017-12-23T05:19:57.184Z,16.94
2017-12-23T05:20:56.637Z,16.94
2017-12-23T05:21:57.137Z,17
2017-12-23T05:22:56.933Z,17.06
2017-12-23T05:23:56.705Z,17.06
2017-12-23T05:24:56.870Z,17.06
2017-12-23T05:25:56.924Z,17.06
2017-12-23T05:26:56.979Z,17.06
2017-12-23T05:27:57.648Z,17.12
2017-12-23T05:28:56.693Z,17.12
2017-12-23T05:29:56.508Z,17.19
2017-12-23T05:30:57.009Z,17.19
2017-12-23T05:31:57.279Z,17.19
2017-12-23T05:32:56.982Z,17.19
2017-12-23T05:33:56.762Z,17.25
2017-12-23T05:34:57.150Z,17.25
2017-12-23T05:35:56.722Z,17.25
2017-12-23T05:36:56.885Z,17.25
2017-12-23T05:37:56.951Z,17.31
2017-12-23T05:38:56.887Z,17.31
2017-12-23T05:39:56.695Z,17.31
2017-12-23T05:40:56.917Z,17.31
2017-12-23T05:41:56.342Z,17.31
2017-12-23T05:42:56.931Z,17.44
2017-12-23T05:43:56.781Z,17.44
2017-12-23T05:44:57.199Z,17.37
2017-12-23T05:45:57.098Z,17.44
2017-12-23T05:46:56.754Z,17.44
2017-12-23T05:47:57.266Z,17.44
2017-12-23T05:48:57.127Z,17.44
2017-12-23T05:49:56.533Z,17.56
2017-12-23T05:50:56.637Z,17.5
2017-12-23T05:51:56.672Z,17.5
2017-12-23T05:52:56.936Z,17.56
2017-12-23T05:53:57.119Z,17.56
2017-12-23T05:54:56.684Z,17.62
2017-12-23T05:55:57.347Z,17.62
2017-12-23T05:56:56.896Z,17.62
2017-12-23T05:57:57.333Z,17.62
2017-12-23T05:58:56.930Z,17.62
2017-12-23T05:59:56.986Z,17.69
2017-12-23T06:00:56.795Z,17.69
2017-12-23T06:01:56.623Z,17.69
2017-12-23T06:02:56.715Z,17.69
2017-12-23T06:03:56.837Z,17.75
2017-12-23T06:04:56.911Z,17.69
2017-12-23T06:05:56.965Z,17.75
2017-12-23T06:06:56.957Z,17.69
2017-12-23T06:07:56.520Z,17.75
2017-12-23T06:08:56.764Z,17.75
2017-12-23T06:09:56.813Z,17.75
2017-12-23T06:10:56.893Z,17.75
2017-12-23T06:11:57.121Z,17.81
2017-12-23T06:12:56.712Z,17.75
2017-12-23T06:13:57.126Z,17.81
2017-12-23T06:14:56.767Z,17.87
2017-12-23T06:15:57.132Z,17.81
2017-12-23T06:16:57.423Z,17.81
2017-12-23T06:17:56.742Z,17.81
2017-12-23T06:18:57.265Z,17.87
2017-12-23T06:19:57.543Z,17.81
2017-12-23T06:20:56.792Z,17.81
2017-12-23T06:21:56.895Z,17.87
2017-12-23T06:22:56.329Z,17.87
2017-12-23T06:23:56.679Z,17.87
2017-12-23T06:24:57.301Z,17.94
2017-12-23T06:25:56.745Z,17.94
2017-12-23T06:26:56.713Z,17.94
2017-12-23T06:27:56.732Z,17.94
2017-12-23T06:28:56.932Z,17.94
2017-12-23T06:29:56.960Z,17.94
2017-12-23T06:30:56.595Z,17.94
2017-12-23T06:31:57.014Z,17.94
2017-12-23T06:32:56.817Z,17.94
2017-12-23T06:33:57.174Z,18
2017-12-23T06:34:56.784Z,18
2017-12-23T06:35:56.725Z,18
2017-12-23T06:36:57.152Z,18
2017-12-23T06:37:56.690Z,18
2017-12-23T06:38:56.974Z,17.94
2017-12-23T06:39:56.796Z,18
2017-12-23T06:40:56.775Z,18.06
2017-12-23T06:41:56.905Z,18.06
2017-12-23T06:42:57.104Z,18.06
2017-12-23T06:43:56.790Z,18
2017-12-23T06:44:56.696Z,18.06
2017-12-23T06:45:56.779Z,18.06
2017-12-23T06:46:57.560Z,18.06
2017-12-23T06:47:56.942Z,18.06
2017-12-23T06:48:57.111Z,18
2017-12-23T06:49:56.513Z,18
2017-12-23T06:50:56.937Z,18
2017-12-23T06:51:57.191Z,18.06
2017-12-23T06:52:56.695Z,18.06
2017-12-23T06:53:56.549Z,18.06
2017-12-23T06:54:56.565Z,18.12
2017-12-23T06:55:56.557Z,18
2017-12-23T06:56:56.767Z,18.06
2017-12-23T06:57:56.979Z,18.06
2017-12-23T06:58:56.949Z,18.06
2017-12-23T06:59:56.930Z,18.12
2017-12-23T07:00:57.380Z,18.12
2017-12-23T07:01:56.990Z,18.06
2017-12-23T07:02:56.791Z,18.06
2017-12-23T07:03:56.810Z,18.06
2017-12-23T07:04:56.737Z,18.06
2017-12-23T07:05:56.757Z,18.06
2017-12-23T07:06:56.756Z,18.06
2017-12-23T07:07:56.787Z,18.06
2017-12-23T07:08:56.740Z,18.06
2017-12-23T07:09:56.951Z,18.06
2017-12-23T07:10:56.782Z,18.06
2017-12-23T07:11:56.925Z,18.12
2017-12-23T07:12:56.793Z,18.06
2017-12-23T07:13:56.552Z,18.12
2017-12-23T07:14:56.699Z,18.12
2017-12-23T07:15:56.781Z,18.06
2017-12-23T07:16:57.279Z,18.06
2017-12-23T07:17:57.013Z,18.12
2017-12-23T07:18:56.987Z,18.12
2017-12-23T07:19:57.034Z,18.12
2017-12-23T07:20:57.205Z,18.12
2017-12-23T07:21:57.366Z,18.19
2017-12-23T07:22:57.283Z,18.12
2017-12-23T07:23:56.799Z,18.12
2017-12-23T07:24:57.196Z,18.06
2017-12-23T07:25:57.162Z,18.12
2017-12-23T07:26:57.110Z,18.12
2017-12-23T07:27:56.919Z,18.12
2017-12-23T07:28:57.024Z,18.19
2017-12-23T07:29:56.926Z,18.12
2017-12-23T07:30:57.006Z,18.12
2017-12-23T07:31:56.618Z,18.19
2017-12-23T07:32:57.762Z,18.19
2017-12-23T07:33:57.194Z,18.19
2017-12-23T07:34:57.378Z,18.06
2017-12-23T07:35:56.983Z,18.12
2017-12-23T07:36:56.966Z,18.19
2017-12-23T07:37:57.008Z,18.19
2017-12-23T07:38:57.142Z,18.19
2017-12-23T07:39:57.361Z,18.25
2017-12-23T07:40:56.817Z,18.19
2017-12-23T07:41:57.181Z,18.19
2017-12-23T07:42:56.632Z,18.19
2017-12-23T07:43:57.349Z,18.19
2017-12-23T07:44:56.771Z,18.19
2017-12-23T07:45:57.139Z,18.25
2017-12-23T07:46:56.952Z,18.19
2017-12-23T07:47:56.782Z,18.12
2017-12-23T07:48:57.206Z,18.19
2017-12-23T07:49:56.960Z,18.19
2017-12-23T07:50:56.958Z,18.19
2017-12-23T07:51:56.810Z,18.19
2017-12-23T07:52:56.732Z,18.19
2017-12-23T07:53:57.052Z,18.19
2017-12-23T07:54:57.121Z,18.25
2017-12-23T07:55:56.825Z,18.25
2017-12-23T07:56:57.017Z,18.25
2017-12-23T07:57:57.754Z,18.25
2017-12-23T07:58:57.204Z,18.25
2017-12-23T07:59:56.734Z,18.19
2017-12-23T08:00:57.683Z,18.19
2017-12-23T08:01:56.925Z,18.25
2017-12-23T08:02:56.745Z,18.25
2017-12-23T08:03:56.752Z,18.19
2017-12-23T08:04:56.869Z,18.25
2017-12-23T08:05:57.001Z,18.19
2017-12-23T08:06:56.949Z,18.19
2017-12-23T08:07:57.412Z,18.25
2017-12-23T08:08:56.985Z,18.19
2017-12-23T08:09:57.133Z,18.25
2017-12-23T08:10:57.139Z,18.25
2017-12-23T08:11:56.981Z,18.25
2017-12-23T08:12:57.196Z,18.25
2017-12-23T08:13:57.529Z,18.25
2017-12-23T08:14:56.841Z,18.25
2017-12-23T08:15:56.852Z,18.25
2017-12-23T08:16:57.265Z,18.25
2017-12-23T08:17:56.794Z,18.25
2017-12-23T08:18:56.837Z,18.31
2017-12-23T08:19:57.504Z,18.25
2017-12-23T08:20:56.820Z,18.31
2017-12-23T08:21:57.191Z,18.31
2017-12-23T08:22:57.035Z,18.31
2017-12-23T08:23:56.792Z,18.31
2017-12-23T08:24:57.412Z,18.25
2017-12-23T08:25:56.986Z,18.25
2017-12-23T08:26:56.875Z,18.31
2017-12-23T08:27:56.799Z,18.25
2017-12-23T08:28:56.848Z,18.31
2017-12-23T08:29:56.990Z,18.37
2017-12-23T08:30:56.861Z,18.31
2017-12-23T08:31:57.145Z,18.31
2017-12-23T08:32:57.311Z,18.31
2017-12-23T08:33:56.935Z,18.31
2017-12-23T08:34:57.418Z,18.31
2017-12-23T08:35:56.895Z,18.31
2017-12-23T08:36:56.443Z,18.37
2017-12-23T08:37:57.004Z,18.37
2017-12-23T08:38:56.973Z,18.31
2017-12-23T08:39:57.201Z,18.37
2017-12-23T08:40:56.882Z,18.37
2017-12-23T08:41:56.667Z,18.37
2017-12-23T08:42:56.835Z,18.37
2017-12-23T08:43:56.841Z,18.37
2017-12-23T08:44:56.825Z,18.37
2017-12-23T08:45:57.048Z,18.37
2017-12-23T08:46:57.010Z,18.37
2017-12-23T08:47:59.575Z,18.37
2017-12-23T08:49:57.281Z,18.37
2017-12-23T08:50:57.795Z,18.44
2017-12-23T08:51:57.003Z,18.44
2017-12-23T08:52:57.251Z,18.44
2017-12-23T08:53:57.454Z,18.37
2017-12-23T08:54:56.909Z,18.44
2017-12-23T08:55:57.432Z,18.44
2017-12-23T08:56:56.877Z,18.37
2017-12-23T08:57:56.869Z,18.37
2017-12-23T08:58:56.459Z,18.37
2017-12-23T08:59:56.996Z,18.37
2017-12-23T09:00:56.433Z,18.37
2017-12-23T09:01:56.830Z,18.44
2017-12-23T09:02:57.654Z,18.44
2017-12-23T09:03:57.061Z,18.44
2017-12-23T09:04:57.495Z,18.44
2017-12-23T09:05:56.858Z,18.44
2017-12-23T09:06:57.084Z,18.44
2017-12-23T09:07:57.018Z,18.44
2017-12-23T09:08:56.478Z,18.44
2017-12-23T09:09:57.026Z,18.5
2017-12-23T09:10:56.407Z,18.44
2017-12-23T09:11:56.835Z,18.44
2017-12-23T09:12:57.187Z,18.44
2017-12-23T09:13:57.026Z,18.44
2017-12-23T09:14:57.071Z,18.44
2017-12-23T09:15:57.408Z,18.37
2017-12-23T09:16:56.975Z,18.44
2017-12-23T09:17:56.805Z,18.44
2017-12-23T09:18:57.405Z,18.44
2017-12-23T09:19:56.824Z,18.44
2017-12-23T09:20:57.216Z,18.44
2017-12-23T09:21:57.482Z,18.44
2017-12-23T09:22:57.026Z,18.5
2017-12-23T09:23:57.212Z,18.44
2017-12-23T09:24:57.423Z,18.44
2017-12-23T09:25:57.259Z,18.37
2017-12-23T09:26:56.854Z,18.44
2017-12-23T09:27:57.026Z,18.44
2017-12-23T09:28:56.820Z,18.44
2017-12-23T09:29:57.197Z,18.44
2017-12-23T09:30:56.882Z,18.5
2017-12-23T09:31:57.269Z,18.44
2017-12-23T09:32:57.058Z,18.44
2017-12-23T09:33:56.819Z,18.44
2017-12-23T09:34:57.027Z,18.44
2017-12-23T09:35:57.098Z,18.5
2017-12-23T09:36:57.510Z,18.44
2017-12-23T09:37:57.120Z,18.44
2017-12-23T09:38:56.834Z,18.44
2017-12-23T09:39:57.269Z,18.44
2017-12-23T09:40:57.065Z,18.44
2017-12-23T09:41:57.052Z,18.44
2017-12-23T09:42:57.005Z,18.5
2017-12-23T09:43:56.817Z,18.5
2017-12-23T09:44:57.075Z,18.5
2017-12-23T09:45:56.414Z,18.44
2017-12-23T09:46:57.080Z,18.5
2017-12-23T09:47:57.636Z,18.44
2017-12-23T09:48:57.498Z,18.5
2017-12-23T09:49:56.494Z,18.5
2017-12-23T09:50:57.245Z,18.5
2017-12-23T09:51:57.064Z,18.5
2017-12-23T09:52:56.816Z,18.44
2017-12-23T09:53:57.114Z,18.5
2017-12-23T09:54:57.407Z,18.5
2017-12-23T09:55:56.912Z,18.44
2017-12-23T09:56:57.508Z,18.5
2017-12-23T09:57:56.889Z,18.5
2017-12-23T09:58:56.983Z,18.5
2017-12-23T09:59:56.864Z,18.5
2017-12-23T10:00:56.882Z,18.5
2017-12-23T10:01:57.307Z,18.5
2017-12-23T10:02:57.237Z,18.44
2017-12-23T10:03:56.865Z,18.5
2017-12-23T10:04:57.073Z,18.5
2017-12-23T10:05:57.281Z,18.44
2017-12-23T10:06:57.011Z,18.5
2017-12-23T10:07:56.893Z,18.44
2017-12-23T10:08:56.592Z,18.44
2017-12-23T10:09:57.063Z,18.5
2017-12-23T10:10:57.557Z,18.5
2017-12-23T10:11:57.073Z,18.5
2017-12-23T10:12:57.275Z,18.56
2017-12-23T10:13:57.435Z,18.44
2017-12-23T10:14:56.930Z,18.5
2017-12-23T10:15:57.506Z,18.44
2017-12-23T10:16:57.242Z,18.5
2017-12-23T10:17:57.209Z,18.56
2017-12-23T10:18:57.266Z,18.5
2017-12-23T10:19:56.748Z,18.44
2017-12-23T10:20:56.912Z,18.44
2017-12-23T10:21:56.877Z,18.44
2017-12-23T10:22:56.999Z,18.44
2017-12-23T10:23:56.898Z,18.44
2017-12-23T10:24:57.218Z,18.5
2017-12-23T10:25:57.574Z,18.5
2017-12-23T10:26:28.424Z,18.5
2017-12-23T10:27:28.062Z,18.56
2017-12-23T10:28:28.456Z,18.56
2017-12-23T10:29:28.893Z,18.5
2017-12-23T10:30:28.486Z,18.56
2017-12-23T10:31:30.898Z,18.56
2017-12-23T10:32:28.484Z,18.56
2017-12-23T10:33:28.922Z,18.56
2017-12-23T10:34:28.580Z,18.56
2017-12-23T10:35:28.719Z,18.56
2017-12-23T10:36:28.070Z,18.56
2017-12-23T10:37:28.362Z,18.62
2017-12-23T10:38:28.464Z,18.5
2017-12-23T10:39:28.584Z,18.56
2017-12-23T10:40:28.710Z,18.56
2017-12-23T10:41:28.054Z,18.5
2017-12-23T10:42:28.860Z,18.5
2017-12-23T10:43:28.612Z,18.5
2017-12-23T10:44:28.630Z,18.5
2017-12-23T10:45:28.315Z,18.56
2017-12-23T10:46:28.293Z,18.5
2017-12-23T10:47:28.801Z,18.56
2017-12-23T10:48:28.276Z,18.56
2017-12-23T10:49:28.809Z,18.5
2017-12-23T10:50:28.505Z,18.5
2017-12-23T10:51:28.448Z,18.5
2017-12-23T10:52:28.679Z,18.5
2017-12-23T10:53:28.856Z,18.5
2017-12-23T10:54:28.512Z,18.5
2017-12-23T10:55:28.690Z,18.5
2017-12-23T10:56:28.382Z,18.5
2017-12-23T10:57:27.994Z,18.56
2017-12-23T10:58:28.288Z,18.5
2017-12-23T10:59:28.785Z,18.56
2017-12-23T11:00:28.497Z,18.5
2017-12-23T11:01:28.679Z,18.5
2017-12-23T11:02:28.315Z,18.5
2017-12-23T11:03:28.695Z,18.5
2017-12-23T11:04:28.662Z,18.5
2017-12-23T11:05:28.614Z,18.5
2017-12-23T11:06:28.982Z,18.44
2017-12-23T11:07:28.676Z,18.5
2017-12-23T11:08:28.649Z,18.5
2017-12-23T11:09:28.504Z,18.5
2017-12-23T11:10:28.322Z,18.5
2017-12-23T11:11:28.340Z,18.56
2017-12-23T11:12:28.758Z,18.5
2017-12-23T11:13:28.559Z,18.5
2017-12-23T11:14:28.700Z,18.44
2017-12-23T11:15:28.278Z,18.5
2017-12-23T11:16:28.601Z,18.5
2017-12-23T11:17:28.538Z,18.5
2017-12-23T11:18:28.672Z,18.5
2017-12-23T11:19:28.942Z,18.5
2017-12-23T11:20:28.477Z,18.5
2017-12-23T11:21:28.832Z,18.5
2017-12-23T11:22:28.732Z,18.5
2017-12-23T11:23:28.705Z,18.44
2017-12-23T11:24:28.648Z,18.5
2017-12-23T11:25:28.299Z,18.5
2017-12-23T11:26:29.020Z,18.44
2017-12-23T11:27:28.189Z,18.5
2017-12-23T11:28:28.292Z,18.5
2017-12-23T11:29:28.259Z,18.44
2017-12-23T11:30:29.044Z,18.44
2017-12-23T11:31:28.881Z,18.44
2017-12-23T11:32:28.701Z,18.44
2017-12-23T11:33:28.308Z,18.5
2017-12-23T11:34:28.705Z,18.5
2017-12-23T11:35:28.299Z,18.5
2017-12-23T11:36:28.904Z,18.44
2017-12-23T11:37:28.429Z,18.44
2017-12-23T11:38:28.834Z,18.44
2017-12-23T11:39:28.531Z,18.44
2017-12-23T11:40:28.695Z,18.44
2017-12-23T11:41:28.826Z,18.44
2017-12-23T11:42:28.721Z,18.44
2017-12-23T11:43:28.645Z,18.44
2017-12-23T11:44:28.644Z,18.44
2017-12-23T11:45:28.709Z,18.37
2017-12-23T11:46:28.328Z,18.37
2017-12-23T11:47:28.657Z,18.44
2017-12-23T11:48:28.289Z,18.44
2017-12-23T11:49:28.359Z,18.44
2017-12-23T11:50:29.060Z,18.37
2017-12-23T11:51:28.487Z,18.44
2017-12-23T11:52:28.553Z,18.44
2017-12-23T11:53:28.551Z,18.37
2017-12-23T11:54:28.062Z,18.44
2017-12-23T11:55:28.505Z,18.37
2017-12-23T11:56:28.902Z,18.44
2017-12-23T11:57:28.495Z,18.44
2017-12-23T11:58:28.512Z,18.44
2017-12-23T11:59:28.502Z,18.37
2017-12-23T12:00:28.710Z,18.44
2017-12-23T12:01:28.707Z,18.44
2017-12-23T12:02:28.255Z,18.44
2017-12-23T12:03:28.319Z,18.37
2017-12-23T12:04:28.968Z,18.44
2017-12-23T12:05:28.268Z,18.44
2017-12-23T12:06:28.709Z,18.44
2017-12-23T12:07:28.505Z,18.44
2017-12-23T12:08:28.685Z,18.44
2017-12-23T12:09:28.673Z,18.44
2017-12-23T12:10:28.483Z,18.44
2017-12-23T12:11:28.551Z,18.44
2017-12-23T12:12:28.988Z,18.44
2017-12-23T12:13:28.970Z,18.44
2017-12-23T12:14:28.482Z,18.44
2017-12-23T12:15:28.345Z,18.5
2017-12-23T12:16:28.907Z,18.5
2017-12-23T12:17:28.480Z,18.5
2017-12-23T12:18:28.135Z,18.44
2017-12-23T12:19:28.402Z,18.44
2017-12-23T12:20:28.979Z,18.44
2017-12-23T12:21:28.949Z,18.5
2017-12-23T12:22:28.782Z,18.5
2017-12-23T12:23:28.503Z,18.5
2017-12-23T12:24:28.521Z,18.5
2017-12-23T12:25:28.619Z,18.56
2017-12-23T12:26:28.748Z,18.56
2017-12-23T12:27:28.199Z,18.5
2017-12-23T12:28:28.607Z,18.5
2017-12-23T12:29:29.006Z,18.56
2017-12-23T12:30:28.361Z,18.56
2017-12-23T12:31:28.706Z,18.56
2017-12-23T12:32:28.686Z,18.56
2017-12-23T12:33:28.610Z,18.56
2017-12-23T12:34:28.498Z,18.56
2017-12-23T12:35:28.358Z,18.56
2017-12-23T12:36:28.487Z,18.5
2017-12-23T12:37:28.832Z,18.56
2017-12-23T12:38:28.636Z,18.56
2017-12-23T12:39:28.500Z,18.56
2017-12-23T12:40:29.094Z,18.56
2017-12-23T12:41:28.548Z,18.56
2017-12-23T12:42:28.726Z,18.56
2017-12-23T12:43:28.208Z,18.56
2017-12-23T12:44:28.829Z,18.56
2017-12-23T12:45:28.243Z,18.56
2017-12-23T12:46:28.522Z,18.56
2017-12-23T12:47:28.117Z,18.56
2017-12-23T12:48:28.517Z,18.56
2017-12-23T12:49:28.912Z,18.56
2017-12-23T12:50:28.328Z,18.62
2017-12-23T12:51:28.304Z,18.56
2017-12-23T12:52:28.474Z,18.62
2017-12-23T12:53:28.476Z,18.56
2017-12-23T12:54:28.256Z,18.62
2017-12-23T12:55:28.793Z,18.62
2017-12-23T12:56:28.112Z,18.62
2017-12-23T12:57:28.675Z,18.62
2017-12-23T12:58:28.621Z,18.62
2017-12-23T12:59:28.586Z,18.62
2017-12-23T13:00:29.032Z,18.62
2017-12-23T13:01:28.377Z,18.62
2017-12-23T13:02:28.271Z,18.62
2017-12-23T13:03:28.274Z,18.56
2017-12-23T13:04:28.423Z,18.62
2017-12-23T13:05:28.762Z,18.69
2017-12-23T13:06:28.556Z,18.62
2017-12-23T13:07:28.131Z,18.62
2017-12-23T13:08:28.528Z,18.62
2017-12-23T13:09:28.746Z,18.62
2017-12-23T13:10:28.792Z,18.69
2017-12-23T13:11:28.712Z,18.62
2017-12-23T13:12:28.208Z,18.62
2017-12-23T13:13:28.483Z,18.62
2017-12-23T13:14:28.697Z,18.62
2017-12-23T13:15:28.917Z,18.62
2017-12-23T13:16:28.730Z,18.62
2017-12-23T13:17:28.136Z,18.62
2017-12-23T13:18:29.001Z,18.69
2017-12-23T13:19:28.287Z,18.62
2017-12-23T13:20:28.874Z,18.62
2017-12-23T13:21:28.347Z,18.69
2017-12-23T13:22:28.872Z,18.69
2017-12-23T13:23:28.993Z,18.62
2017-12-23T13:24:28.746Z,18.69
2017-12-23T13:25:28.160Z,18.69
2017-12-23T13:26:28.314Z,18.62
2017-12-23T13:27:29.056Z,18.69
2017-12-23T13:28:28.143Z,18.69
2017-12-23T13:29:28.318Z,18.69
2017-12-23T13:30:28.319Z,18.69
2017-12-23T13:31:28.514Z,18.62
2017-12-23T13:32:28.432Z,18.69
2017-12-23T13:33:28.546Z,18.62
2017-12-23T13:34:28.762Z,18.62
2017-12-23T13:35:29.003Z,18.69
2017-12-23T13:36:28.393Z,18.62
2017-12-23T13:37:28.382Z,18.62
2017-12-23T13:38:28.578Z,18.62
2017-12-23T13:39:28.176Z,18.62
2017-12-23T13:40:28.945Z,18.62
2017-12-23T13:41:28.388Z,18.69
2017-12-23T13:42:28.441Z,18.62
2017-12-23T13:43:29.341Z,18.69
2017-12-23T13:44:28.877Z,18.69
2017-12-23T13:45:28.413Z,18.69
2017-12-23T13:46:29.136Z,18.69
2017-12-23T13:47:29.069Z,18.69
2017-12-23T13:48:28.680Z,18.69
2017-12-23T13:49:28.440Z,18.62
2017-12-23T13:50:28.569Z,18.69
2017-12-23T13:51:28.675Z,18.69
2017-12-23T13:52:28.598Z,18.62